createdAt,value
2017-08-25T00:02:03.240Z,101307.00
2017-08-25T00:04:30.994Z,101301.85
2017-08-25T00:06:58.661Z,101303.39
2017-08-25T00:09:26.303Z,101308.29
2017-08-25T00:11:53.934Z,101309.03
2017-08-25T00:14:21.539Z,101310.64
2017-08-25T00:16:49.143Z,101308.10
2017-08-25T00:19:16.886Z,101307.72
2017-08-25T00:21:44.721Z,101307.41
2017-08-25T00:24:12.358Z,101309.30
2017-08-25T00:26:39.951Z,101303.21
2017-08-25T00:29:07.583Z,101306.57
2017-08-25T00:31:35.182Z,101304.70
2017-08-25T00:34:02.827Z,101306.23
2017-08-25T00:36:30.446Z,101311.74
2017-08-25T00:38:58.128Z,101314.66
2017-08-25T00:41:25.716Z,101315.58
2017-08-25T00:43:53.319Z,101311.58
2017-08-25T00:46:21.112Z,101319.98
2017-08-25T00:48:48.710Z,101315.97
2017-08-25T00:51:16.347Z,101318.53
2017-08-25T00:53:43.955Z,101319.91
2017-08-25T00:56:11.599Z,101318.94
2017-08-25T00:58:39.178Z,101315.16
2017-08-25T01:01:06.811Z,101322.81
2017-08-25T01:03:34.408Z,101324.11
2017-08-25T01:06:02.041Z,101328.89
2017-08-25T01:08:29.734Z,101325.02
2017-08-25T01:10:57.374Z,101332.72
2017-08-25T01:13:25.002Z,101327.53
2017-08-25T01:15:52.623Z,101327.28
2017-08-25T01:18:20.228Z,101324.31
2017-08-25T01:20:47.810Z,101323.67
2017-08-25T01:23:15.435Z,101331.34
2017-08-25T01:25:43.022Z,101330.95
2017-08-25T01:28:10.666Z,101330.44
2017-08-25T01:30:38.275Z,101325.35
2017-08-25T01:33:05.894Z,101332.14
2017-08-25T01:35:33.492Z,101327.48
2017-08-25T01:38:01.223Z,101328.97
2017-08-25T01:40:28.878Z,101330.50
2017-08-25T01:42:56.498Z,101330.99
2017-08-25T01:45:24.098Z,101333.52
2017-08-25T01:47:51.703Z,101329.59
2017-08-25T01:50:19.289Z,101332.31
2017-08-25T01:52:46.915Z,101335.54
2017-08-25T01:55:14.506Z,101334.25
2017-08-25T01:57:42.138Z,101331.56
2017-08-25T02:00:09.746Z,101330.27
2017-08-25T02:02:37.354Z,101329.75
2017-08-25T02:05:04.975Z,101332.16
2017-08-25T02:07:32.573Z,101332.08
2017-08-25T02:10:00.199Z,101330.27
2017-08-25T02:12:27.887Z,101333.67
2017-08-25T02:14:55.530Z,101323.94
2017-08-25T02:17:23.135Z,101322.23
2017-08-25T02:19:50.762Z,101327.20
2017-08-25T02:22:18.359Z,101323.56
2017-08-25T02:24:45.995Z,101327.42
2017-08-25T02:27:13.599Z,101325.77
2017-08-25T02:29:41.240Z,101315.97
2017-08-25T02:32:08.846Z,101321.78
2017-08-25T02:34:36.478Z,101332.89
2017-08-25T02:37:04.120Z,101331.26
2017-08-25T02:39:31.776Z,101324.91
2017-08-25T02:41:59.362Z,101321.56
2017-08-25T02:44:26.994Z,101324.58
2017-08-25T02:46:54.586Z,101316.28
2017-08-25T02:49:22.203Z,101316.62
2017-08-25T02:51:49.801Z,101317.50
2017-08-25T02:54:17.539Z,101318.81
2017-08-25T02:56:45.118Z,101315.84
2017-08-25T02:59:12.735Z,101313.53
2017-08-25T03:01:40.362Z,101307.05
2017-08-25T03:04:07.975Z,101315.61
2017-08-25T03:06:35.575Z,101310.22
2017-08-25T03:09:03.187Z,101311.91
2017-08-25T03:11:30.766Z,101306.75
2017-08-25T03:13:58.378Z,101310.52
2017-08-25T03:16:25.994Z,101310.17
2017-08-25T03:18:53.630Z,101308.53
2017-08-25T03:21:21.223Z,101318.59
2017-08-25T03:23:48.862Z,101322.54
2017-08-25T03:26:16.442Z,101313.62
2017-08-25T03:28:44.154Z,101309.50
2017-08-25T03:31:11.806Z,101307.50
2017-08-25T03:33:39.414Z,101302.52
2017-08-25T03:36:07.035Z,101299.77
2017-08-25T03:38:34.630Z,101303.30
2017-08-25T03:41:02.258Z,101299.63
2017-08-25T03:43:29.890Z,101298.93
2017-08-25T03:45:57.500Z,101298.78
2017-08-25T03:48:25.089Z,101299.34
2017-08-25T03:50:52.767Z,101305.38
2017-08-25T03:53:20.366Z,101311.41
2017-08-25T03:55:48.071Z,101317.48
2017-08-25T03:58:15.686Z,101314.08
2017-08-25T04:00:43.318Z,101317.98
2017-08-25T04:03:10.914Z,101316.80
2017-08-25T04:05:38.535Z,101328.53
2017-08-25T04:08:06.166Z,101328.28
2017-08-25T04:10:33.856Z,101321.75
2017-08-25T04:13:01.466Z,101319.11
2017-08-25T04:15:29.090Z,101323.55
2017-08-25T04:17:56.699Z,101327.20
2017-08-25T04:20:24.319Z,101328.08
2017-08-25T04:22:51.918Z,101328.86
2017-08-25T04:25:19.534Z,101324.48
2017-08-25T04:27:47.130Z,101326.31
2017-08-25T04:30:14.766Z,101325.08
2017-08-25T04:32:42.342Z,101329.06
2017-08-25T04:35:09.951Z,101332.31
2017-08-25T04:37:37.554Z,101328.98
2017-08-25T04:40:05.172Z,101341.30
2017-08-25T04:42:32.762Z,101342.81
2017-08-25T04:45:00.504Z,101343.61
2017-08-25T04:47:28.105Z,101348.25
2017-08-25T04:49:55.767Z,101349.91
2017-08-25T04:52:23.376Z,101344.89
2017-08-25T04:54:51.003Z,101338.30
2017-08-25T04:57:18.603Z,101337.81
2017-08-25T04:59:46.220Z,101339.89
2017-08-25T05:02:13.814Z,101341.27
2017-08-25T05:04:41.447Z,101349.37
2017-08-25T05:07:09.046Z,101345.95
2017-08-25T05:09:36.668Z,101349.59
2017-08-25T05:12:04.334Z,101346.64
2017-08-25T05:14:31.954Z,101348.86
2017-08-25T05:16:59.538Z,101350.62
2017-08-25T05:19:27.185Z,101351.87
2017-08-25T05:21:54.786Z,101356.59
2017-08-25T05:24:22.367Z,101349.52
2017-08-25T05:26:49.987Z,101351.34
2017-08-25T05:29:17.643Z,101343.33
2017-08-25T05:31:45.243Z,101330.14
2017-08-25T05:34:12.832Z,101329.13
2017-08-25T05:36:40.465Z,101324.87
2017-08-25T05:39:08.067Z,101326.19
2017-08-25T05:41:35.691Z,101321.22
2017-08-25T05:44:03.283Z,101320.38
2017-08-25T05:46:30.954Z,101330.25
2017-08-25T05:48:58.623Z,101341.23
2017-08-25T05:51:26.255Z,101349.14
2017-08-25T05:53:53.875Z,101345.77
2017-08-25T05:56:21.897Z,101343.88
2017-08-25T05:58:49.651Z,101340.71
2017-08-25T06:01:17.268Z,101346.13
2017-08-25T06:03:44.860Z,101344.83
2017-08-25T06:06:12.604Z,101347.20
2017-08-25T06:08:40.386Z,101345.34
2017-08-25T06:11:08.179Z,101352.84
2017-08-25T06:13:35.834Z,101350.66
2017-08-25T06:16:03.431Z,101345.63
2017-08-25T06:18:31.103Z,101345.31
2017-08-25T06:20:58.694Z,101347.38
2017-08-25T06:23:26.347Z,101344.83
2017-08-25T06:25:53.975Z,101349.41
2017-08-25T06:28:21.614Z,101351.93
2017-08-25T06:30:49.217Z,101353.95
2017-08-25T06:33:16.887Z,101361.45
2017-08-25T06:35:44.487Z,101362.08
2017-08-25T06:38:12.106Z,101369.63
2017-08-25T06:40:39.755Z,101375.66
2017-08-25T06:43:07.373Z,101368.89
2017-08-25T06:45:35.031Z,101366.67
2017-08-25T06:48:02.701Z,101361.70
2017-08-25T06:50:30.315Z,101364.17
2017-08-25T06:52:57.923Z,101365.56
2017-08-25T06:55:25.546Z,101360.70
2017-08-25T06:57:53.177Z,101360.06
2017-08-25T07:00:20.798Z,101356.78
2017-08-25T07:02:48.426Z,101360.83
2017-08-25T07:05:16.033Z,101362.47
2017-08-25T07:07:43.702Z,101358.25
2017-08-25T07:10:11.294Z,101358.25
2017-08-25T07:12:38.953Z,101361.22
2017-08-25T07:15:06.582Z,101365.83
2017-08-25T07:17:34.182Z,101364.41
2017-08-25T07:20:01.954Z,101365.77
2017-08-25T07:22:29.595Z,101374.64
2017-08-25T07:24:57.207Z,101375.73
2017-08-25T07:27:24.874Z,101385.47
2017-08-25T07:29:52.515Z,101389.66
2017-08-25T07:32:20.984Z,101383.39
2017-08-25T07:34:48.598Z,101384.22
2017-08-25T07:37:16.234Z,101386.93
2017-08-25T07:39:43.843Z,101395.53
2017-08-25T07:42:11.533Z,101402.39
2017-08-25T07:44:39.134Z,101398.09
2017-08-25T07:47:06.770Z,101400.16
2017-08-25T07:49:34.427Z,101401.25
2017-08-25T07:52:02.025Z,101397.84
2017-08-25T07:54:29.710Z,101396.33
2017-08-25T07:56:57.363Z,101388.29
2017-08-25T07:59:25.007Z,101388.07
2017-08-25T08:01:52.695Z,101382.02
2017-08-25T08:04:20.326Z,101378.70
2017-08-25T08:06:48.077Z,101377.55
2017-08-25T08:09:15.754Z,101378.55
2017-08-25T08:11:43.386Z,101378.36
2017-08-25T08:14:11.009Z,101377.47
2017-08-25T08:16:38.618Z,101388.67
2017-08-25T08:19:06.260Z,101387.45
2017-08-25T08:21:33.879Z,101383.17
2017-08-25T08:24:01.485Z,101390.97
2017-08-25T08:26:29.122Z,101386.92
2017-08-25T08:28:56.728Z,101393.89
2017-08-25T08:31:24.362Z,101381.55
2017-08-25T08:33:51.978Z,101383.33
2017-08-25T08:36:25.114Z,101386.21
2017-08-25T08:38:52.733Z,101377.44
2017-08-25T08:41:20.370Z,101382.18
2017-08-25T08:43:48.036Z,101382.61
2017-08-25T08:46:15.666Z,101382.71
2017-08-25T08:48:43.319Z,101381.17
2017-08-25T08:51:10.983Z,101376.92
2017-08-25T08:53:38.591Z,101377.60
2017-08-25T08:56:06.247Z,101378.91
2017-08-25T08:58:33.842Z,101374.77
2017-08-25T09:01:01.480Z,101371.12
2017-08-25T09:03:29.077Z,101373.47
2017-08-25T09:06:02.145Z,101369.73
2017-08-25T09:08:29.734Z,101383.53
2017-08-25T09:10:57.323Z,101378.44
2017-08-25T09:13:24.972Z,101369.02
2017-08-25T09:15:52.567Z,101375.25
2017-08-25T09:18:20.187Z,101375.44
2017-08-25T09:20:47.799Z,101373.14
2017-08-25T09:23:15.419Z,101371.57
2017-08-25T09:25:43.006Z,101360.77
2017-08-25T09:28:10.639Z,101357.90
2017-08-25T09:30:38.258Z,101357.58
2017-08-25T09:33:05.887Z,101350.85
2017-08-25T09:35:33.491Z,101345.23
2017-08-25T09:38:01.111Z,101337.76
2017-08-25T09:40:28.702Z,101337.61
2017-08-25T09:42:56.331Z,101335.20
2017-08-25T09:45:23.950Z,101334.07
2017-08-25T09:47:51.606Z,101334.06
2017-08-25T09:50:19.198Z,101337.42
2017-08-25T09:52:46.887Z,101326.17
2017-08-25T09:55:14.488Z,101333.62
2017-08-25T09:57:42.110Z,101334.95
2017-08-25T10:00:09.803Z,101328.48
2017-08-25T10:02:37.434Z,101328.14
2017-08-25T10:05:05.152Z,101326.45
2017-08-25T10:07:32.798Z,101324.52
2017-08-25T10:10:00.388Z,101327.95
2017-08-25T10:12:28.014Z,101327.22
2017-08-25T10:14:55.626Z,101327.95
2017-08-25T10:17:23.255Z,101318.70
2017-08-25T10:19:50.847Z,101324.97
2017-08-25T10:22:18.465Z,101324.18
2017-08-25T10:24:46.064Z,101327.84
2017-08-25T10:27:13.723Z,101333.20
2017-08-25T10:29:41.295Z,101330.67
2017-08-25T10:32:09.006Z,101326.30
2017-08-25T10:37:48.480Z,101313.31
2017-08-25T10:40:27.798Z,101310.75
2017-08-25T10:43:07.400Z,101314.94
2017-08-25T10:45:34.993Z,101303.77
2017-08-25T10:48:02.618Z,101291.92
2017-08-25T10:50:30.210Z,101294.44
2017-08-25T10:52:57.838Z,101289.55
2017-08-25T10:55:25.502Z,101292.05
2017-08-25T10:57:53.129Z,101285.82
2017-08-25T11:00:20.714Z,101286.48
2017-08-25T11:02:48.347Z,101285.09
2017-08-25T11:05:16.071Z,101282.58
2017-08-25T11:07:43.699Z,101283.93
2017-08-25T11:10:11.410Z,101281.33
2017-08-25T11:12:39.031Z,101279.25
2017-08-25T11:15:06.646Z,101281.48
2017-08-25T11:17:34.264Z,101279.43
2017-08-25T11:20:01.898Z,101274.26
2017-08-25T11:22:29.554Z,101267.58
2017-08-25T11:24:57.187Z,101266.93
2017-08-25T11:27:24.826Z,101263.25
2017-08-25T11:29:52.481Z,101259.75
2017-08-25T11:32:20.860Z,101264.52
2017-08-25T11:34:48.595Z,101260.64
2017-08-25T11:37:16.300Z,101261.13
2017-08-25T11:39:43.911Z,101258.55
2017-08-25T11:42:11.510Z,101268.22
2017-08-25T11:44:39.130Z,101273.89
2017-08-25T11:47:06.729Z,101264.16
2017-08-25T11:49:34.347Z,101266.50
2017-08-25T11:52:01.946Z,101267.18
2017-08-25T11:54:29.570Z,101265.59
2017-08-25T11:56:57.284Z,101269.46
2017-08-25T11:59:24.927Z,101263.39
2017-08-25T12:01:52.536Z,101263.16
2017-08-25T12:04:20.161Z,101263.56
2017-08-25T12:06:47.758Z,101255.77
2017-08-25T12:09:15.378Z,101258.70
2017-08-25T12:11:43.025Z,101263.05
2017-08-25T12:14:10.662Z,101256.06
2017-08-25T12:16:38.246Z,101259.88
2017-08-25T12:19:05.890Z,101263.08
2017-08-25T12:21:33.490Z,101263.14
2017-08-25T12:24:01.123Z,101258.10
2017-08-25T12:26:28.722Z,101248.36
2017-08-25T12:28:56.351Z,101256.63
2017-08-25T12:31:23.955Z,101261.44
2017-08-25T12:33:51.586Z,101256.75
2017-08-25T12:36:19.212Z,101253.19
2017-08-25T12:38:46.914Z,101258.39
2017-08-25T12:41:14.506Z,101254.55
2017-08-25T12:43:42.138Z,101250.94
2017-08-25T12:46:09.750Z,101253.79
2017-08-25T12:48:37.377Z,101247.08
2017-08-25T12:51:04.976Z,101226.37
2017-08-25T12:53:32.711Z,101228.20
2017-08-25T12:56:00.292Z,101228.83
2017-08-25T12:58:27.923Z,101222.70
2017-08-25T13:00:55.518Z,101227.70
2017-08-25T13:03:23.284Z,101227.38
2017-08-25T13:05:50.875Z,101223.34
2017-08-25T13:08:18.717Z,101212.21
2017-08-25T13:10:46.461Z,101204.50
2017-08-25T13:13:14.091Z,101209.27
2017-08-25T13:15:41.695Z,101205.11
2017-08-25T13:18:09.354Z,101213.34
2017-08-25T13:20:36.983Z,101213.92
2017-08-25T13:23:04.594Z,101211.02
2017-08-25T13:25:32.218Z,101209.24
2017-08-25T13:27:59.885Z,101198.53
2017-08-25T13:30:27.477Z,101197.17
2017-08-25T13:32:55.101Z,101195.91
2017-08-25T13:35:22.694Z,101193.65
2017-08-25T13:37:50.351Z,101194.92
2017-08-25T13:40:17.952Z,101189.83
2017-08-25T13:42:45.606Z,101191.31
2017-08-25T13:45:13.231Z,101187.39
2017-08-25T13:47:40.943Z,101182.78
2017-08-25T13:50:08.577Z,101188.03
2017-08-25T13:52:36.170Z,101184.00
2017-08-25T13:55:03.798Z,101187.88
2017-08-25T13:57:31.387Z,101202.02
2017-08-25T13:59:59.014Z,101193.59
2017-08-25T14:02:26.610Z,101196.14
2017-08-25T14:04:54.246Z,101195.67
2017-08-25T14:07:21.834Z,101199.20
2017-08-25T14:09:49.464Z,101197.66
2017-08-25T14:12:17.063Z,101190.70
2017-08-25T14:14:44.703Z,101185.63
2017-08-25T14:17:12.295Z,101178.16
2017-08-25T14:19:39.915Z,101169.58
2017-08-25T14:22:07.530Z,101164.91
2017-08-25T14:24:35.157Z,101164.02
2017-08-25T14:27:02.763Z,101168.14
2017-08-25T14:29:30.441Z,101157.75
2017-08-25T14:31:58.039Z,101165.28
2017-08-25T14:34:25.743Z,101167.49
2017-08-25T14:36:53.371Z,101164.95
2017-08-25T14:39:20.995Z,101163.41
2017-08-25T14:41:48.655Z,101165.24
2017-08-25T14:44:16.270Z,101159.03
2017-08-25T14:46:43.914Z,101159.33
2017-08-25T14:49:11.529Z,101163.13
2017-08-25T14:51:39.139Z,101161.29
2017-08-25T14:54:06.739Z,101165.29
2017-08-25T14:56:34.358Z,101170.28
2017-08-25T14:59:01.950Z,101163.53
2017-08-25T15:01:29.594Z,101159.42
2017-08-25T15:03:57.226Z,101144.23
2017-08-25T15:06:24.858Z,101123.88
2017-08-25T15:08:52.455Z,101119.91
2017-08-25T15:11:20.082Z,101116.75
2017-08-25T15:13:47.689Z,101121.46
2017-08-25T15:16:15.383Z,101112.45
2017-08-25T15:18:42.981Z,101107.40
2017-08-25T15:21:10.611Z,101100.11
2017-08-25T15:23:38.214Z,101094.56
2017-08-25T15:26:05.857Z,101094.38
2017-08-25T15:28:33.451Z,101103.09
2017-08-25T15:31:01.046Z,101108.22
2017-08-25T15:33:28.691Z,101100.97
2017-08-25T15:35:56.290Z,101095.78
2017-08-25T15:38:23.932Z,101094.48
2017-08-25T15:40:51.535Z,101093.02
2017-08-25T15:43:19.175Z,101094.02
2017-08-25T15:45:46.769Z,101086.95
2017-08-25T15:48:14.384Z,101079.30
2017-08-25T15:50:42.045Z,101079.16
2017-08-25T15:53:09.698Z,101083.78
2017-08-25T15:55:37.292Z,101083.11
2017-08-25T15:58:04.952Z,101083.31
2017-08-25T16:00:32.531Z,101096.33
2017-08-25T16:03:00.174Z,101095.73
2017-08-25T16:05:27.985Z,101093.63
2017-08-25T16:07:55.656Z,101089.58
2017-08-25T16:10:23.274Z,101092.40
2017-08-25T16:12:50.904Z,101096.40
2017-08-25T16:15:18.608Z,101094.96
2017-08-25T16:17:46.271Z,101100.34
2017-08-25T16:20:13.862Z,101098.48
2017-08-25T16:22:41.542Z,101098.83
2017-08-25T16:25:09.138Z,101092.64
2017-08-25T16:27:36.781Z,101094.30
2017-08-25T16:30:04.688Z,101090.95
2017-08-25T16:32:32.321Z,101082.55
2017-08-25T16:34:59.983Z,101079.11
2017-08-25T16:37:27.595Z,101080.53
2017-08-25T16:39:55.335Z,101068.44
2017-08-25T16:42:22.962Z,101069.89
2017-08-25T16:44:50.562Z,101071.70
2017-08-25T16:47:18.206Z,101067.52
2017-08-25T16:49:45.830Z,101060.72
2017-08-25T16:52:13.517Z,101058.39
2017-08-25T16:54:41.158Z,101057.45
2017-08-25T16:57:08.755Z,101051.27
2017-08-25T16:59:36.416Z,101050.07
2017-08-25T17:02:04.015Z,101046.66
2017-08-25T17:04:31.654Z,101049.14
2017-08-25T17:06:59.263Z,101048.50
2017-08-25T17:09:26.887Z,101047.34
2017-08-25T17:11:54.470Z,101040.61
2017-08-25T17:14:22.108Z,101025.36
2017-08-25T17:16:49.719Z,101024.30
2017-08-25T17:19:17.370Z,101022.63
2017-08-25T17:21:44.972Z,101028.70
2017-08-25T17:24:12.591Z,101028.47
2017-08-25T17:26:40.230Z,101034.30
2017-08-25T17:29:07.850Z,101046.11
2017-08-25T17:31:35.485Z,101061.81
2017-08-25T17:34:03.122Z,101062.05
2017-08-25T17:36:30.702Z,101066.77
2017-08-25T17:38:58.338Z,101072.72
2017-08-25T17:41:25.922Z,101070.56
2017-08-25T17:43:53.564Z,101066.63
2017-08-25T17:46:21.167Z,101065.05
2017-08-25T17:48:48.759Z,101063.96
2017-08-25T17:51:16.375Z,101072.36
2017-08-25T17:53:44.008Z,101073.15
2017-08-25T17:56:11.614Z,101072.33
2017-08-25T17:58:39.206Z,101076.85
2017-08-25T18:01:06.842Z,101075.25
2017-08-25T18:03:34.461Z,101077.14
2017-08-25T18:06:02.106Z,101078.69
2017-08-25T18:08:29.708Z,101079.47
2017-08-25T18:10:57.323Z,101079.77
2017-08-25T18:13:24.969Z,101085.81
2017-08-25T18:15:52.617Z,101082.55
2017-08-25T18:18:20.291Z,101080.73
2017-08-25T18:20:47.923Z,101078.72
2017-08-25T18:23:15.528Z,101083.68
2017-08-25T18:25:43.147Z,101085.48
2017-08-25T18:28:10.765Z,101090.78
2017-08-25T18:30:38.394Z,101092.59
2017-08-25T18:33:05.990Z,101090.62
2017-08-25T18:35:33.629Z,101081.96
2017-08-25T18:38:01.243Z,101082.06
2017-08-25T18:40:28.867Z,101080.55
2017-08-25T18:42:56.465Z,101076.38
2017-08-25T18:45:24.098Z,101073.41
2017-08-25T18:47:51.717Z,101071.70
2017-08-25T18:50:19.387Z,101075.70
2017-08-25T18:52:46.998Z,101088.53
2017-08-25T18:55:14.736Z,101084.86
2017-08-25T18:57:42.336Z,101086.06
2017-08-25T19:00:09.942Z,101087.95
2017-08-25T19:02:37.579Z,101079.17
2017-08-25T19:05:05.170Z,101088.15
2017-08-25T19:07:32.853Z,101088.87
2017-08-25T19:10:00.463Z,101089.41
2017-08-25T19:12:28.086Z,101093.31
2017-08-25T19:14:55.726Z,101088.02
2017-08-25T19:17:23.391Z,101091.94
2017-08-25T19:19:51.135Z,101088.66
2017-08-25T19:22:18.760Z,101078.92
2017-08-25T19:24:46.354Z,101077.10
2017-08-25T19:27:13.986Z,101082.51
2017-08-25T19:29:41.624Z,101089.89
2017-08-25T19:32:09.427Z,101087.59
2017-08-25T19:34:37.026Z,101079.39
2017-08-25T19:37:04.658Z,101078.27
2017-08-25T19:39:32.287Z,101077.41
2017-08-25T19:41:59.924Z,101070.27
2017-08-25T19:44:27.547Z,101073.75
2017-08-25T19:46:55.183Z,101067.91
2017-08-25T19:49:22.803Z,101073.95
2017-08-25T19:51:50.439Z,101074.19
2017-08-25T19:54:18.138Z,101069.23
2017-08-25T19:56:45.774Z,101065.06
2017-08-25T19:59:13.434Z,101066.40
2017-08-25T20:01:41.069Z,101058.26
2017-08-25T20:04:08.670Z,101057.34
2017-08-25T20:06:36.321Z,101057.03
2017-08-25T20:09:03.922Z,101052.92
2017-08-25T20:11:31.571Z,101063.48
2017-08-25T20:13:59.173Z,101062.45
2017-08-25T20:16:26.836Z,101059.21
2017-08-25T20:18:54.450Z,101056.34
2017-08-25T20:21:22.087Z,101059.69
2017-08-25T20:23:49.683Z,101065.40
2017-08-25T20:26:17.316Z,101065.77
2017-08-25T20:28:44.923Z,101063.14
2017-08-25T20:31:12.574Z,101065.94
2017-08-25T20:33:40.198Z,101071.81
2017-08-25T20:36:07.839Z,101070.95
2017-08-25T20:38:35.439Z,101070.31
2017-08-25T20:41:03.076Z,101069.05
2017-08-25T20:43:30.672Z,101069.21
2017-08-25T20:45:58.311Z,101067.84
2017-08-25T20:48:25.902Z,101069.89
2017-08-25T20:50:53.534Z,101067.25
2017-08-25T20:53:21.128Z,101063.18
2017-08-25T20:55:48.773Z,101059.34
2017-08-25T20:58:16.366Z,101058.58
2017-08-25T21:00:44.148Z,101054.31
2017-08-25T21:03:11.766Z,101058.39
2017-08-25T21:05:39.374Z,101063.52
2017-08-25T21:08:07.007Z,101053.58
2017-08-25T21:10:34.686Z,101052.13
2017-08-25T21:13:02.419Z,101048.38
2017-08-25T21:15:30.144Z,101045.79
2017-08-25T21:17:57.758Z,101049.38
2017-08-25T21:20:25.397Z,101047.36
2017-08-25T21:22:53.006Z,101037.60
2017-08-25T21:25:20.839Z,101045.20
2017-08-25T21:27:48.443Z,101039.73
2017-08-25T21:30:16.143Z,101045.20
2017-08-25T21:32:43.757Z,101043.91
2017-08-25T21:35:11.360Z,101040.05
2017-08-25T21:37:38.993Z,101043.64
2017-08-25T21:40:06.604Z,101046.30
2017-08-25T21:42:34.287Z,101060.54
2017-08-25T21:45:01.870Z,101060.87
2017-08-25T21:47:29.505Z,101066.65
2017-08-25T21:49:57.117Z,101057.56
2017-08-25T21:52:24.749Z,101054.52
2017-08-25T21:54:52.359Z,101055.76
2017-08-25T21:57:20.068Z,101052.41
2017-08-25T21:59:47.671Z,101062.97
2017-08-25T22:02:15.310Z,101062.88
2017-08-25T22:04:42.902Z,101050.48
2017-08-25T22:07:10.542Z,101063.86
2017-08-25T22:09:38.151Z,101074.50
2017-08-25T22:12:05.790Z,101069.81
2017-08-25T22:14:33.387Z,101077.33
2017-08-25T22:17:01.024Z,101067.58
2017-08-25T22:19:28.618Z,101064.73
2017-08-25T22:21:56.283Z,101054.00
2017-08-25T22:24:23.886Z,101054.22
2017-08-25T22:26:51.531Z,101063.06
2017-08-25T22:29:19.150Z,101062.28
2017-08-25T22:31:46.806Z,101066.46
2017-08-25T22:34:14.417Z,101062.46
2017-08-25T22:36:42.060Z,101065.55
2017-08-25T22:39:09.677Z,101057.78
2017-08-25T22:41:37.301Z,101055.47
2017-08-25T22:44:04.923Z,101053.20
2017-08-25T22:46:32.717Z,101069.39
2017-08-25T22:49:00.323Z,101069.07
2017-08-25T22:51:27.962Z,101068.73
2017-08-25T22:53:55.611Z,101062.88
2017-08-25T22:56:23.402Z,101058.98
2017-08-25T22:58:51.001Z,101054.51
2017-08-25T23:01:18.629Z,101049.69
2017-08-25T23:03:46.248Z,101045.45
2017-08-25T23:06:13.850Z,101025.39
2017-08-25T23:08:57.097Z,101021.58
2017-08-25T23:14:15.175Z,101029.81
2017-08-25T23:16:48.719Z,101038.89
2017-08-25T23:19:22.078Z,101031.74
2017-08-25T23:21:49.702Z,101027.93
2017-08-25T23:24:17.298Z,101026.56
2017-08-25T23:26:44.935Z,101023.02
2017-08-25T23:29:12.583Z,101015.95
2017-08-25T23:31:40.167Z,101005.33
2017-08-25T23:34:07.959Z,101010.13
2017-08-25T23:36:35.554Z,101022.06
2017-08-25T23:39:03.345Z,101020.31
2017-08-25T23:41:30.984Z,101025.57
2017-08-25T23:43:58.587Z,101043.30
2017-08-25T23:46:26.207Z,101044.65
2017-08-25T23:48:53.844Z,101041.36
2017-08-25T23:51:21.478Z,101037.03
2017-08-25T23:53:49.301Z,101043.77
2017-08-25T23:56:16.947Z,101041.91
2017-08-25T23:58:44.656Z,101033.59
